Time;durP1;ratioP1;P1;durP2;ratioP2;P2;SDS_P1;SDS_P2;PMS_P1;PMS_P2;Temp;Humidity;BMP_temperature;BMP_pressure;BME280_temperature;BME280_humidity;BME280_pressure;Samples;Min_cycle;Max_cycle;Signal;HPM_P1;HPM_P2
2022/05/20 00:01:25;;;;;;;3.40;2.50;;;19.60;59.40;;;16.11;74.14;96205.16;5094467;28;20070;-51
2022/05/20 00:03:51;;;;;;;3.75;2.70;;;19.60;59.60;;;16.03;74.54;96207.66;5094170;28;20059;-51
2022/05/20 00:06:17;;;;;;;5.20;2.58;;;19.50;59.70;;;15.98;74.90;96202.34;5092931;28;20384;-49
2022/05/20 00:08:46;;;;;;;5.13;2.97;;;19.50;59.80;;;15.92;74.72;96205.09;5076113;28;20078;-48
2022/05/20 00:11:12;;;;;;;4.53;2.83;;;19.50;60.00;;;15.91;75.19;96200.78;5094218;28;20024;-49
2022/05/20 00:13:40;;;;;;;4.00;2.67;;;19.50;60.00;;;15.90;75.06;96203.75;5075901;28;20437;-51
2022/05/20 00:16:06;;;;;;;5.28;2.60;;;19.40;60.20;;;15.84;75.69;96197.63;5075960;28;20043;-49
2022/05/20 00:18:35;;;;;;;4.20;2.78;;;19.30;60.20;;;15.73;76.47;96199.63;5076769;28;20084;-50
2022/05/20 00:21:07;;;;;;;3.85;2.40;;;19.30;60.60;;;15.67;76.60;96194.56;5075877;28;20024;-53
2022/05/20 00:23:41;;;;;;;4.38;2.60;;;19.30;60.80;;;15.69;76.50;96192.38;5074557;28;20028;-48
2022/05/20 00:26:07;;;;;;;4.22;2.92;;;19.20;61.00;;;15.68;76.66;96199.66;5093870;28;20024;-49
2022/05/20 00:28:36;;;;;;;4.95;2.97;;;19.20;60.90;;;15.69;76.97;96197.75;5093589;28;20026;-52
2022/05/20 00:31:11;;;;;;;5.35;2.42;;;19.20;61.10;;;15.66;77.55;96198.28;5092528;28;20054;-48
2022/05/20 00:33:38;;;;;;;6.95;2.90;;;19.20;61.60;;;15.64;77.37;96195.09;5093387;28;20024;-48
2022/05/20 00:36:10;;;;;;;5.22;2.70;;;19.10;61.30;;;15.59;77.56;96190.56;5058977;28;20028;-51
2022/05/20 00:38:40;;;;;;;4.23;2.73;;;19.10;61.50;;;15.60;77.38;96192.16;5093654;28;20046;-52
2022/05/20 00:41:08;;;;;;;4.85;3.08;;;19.10;61.60;;;15.60;77.29;96186.00;5093370;28;20032;-49
2022/05/20 00:43:48;;;;;;;4.57;2.80;;;19.10;61.70;;;15.66;77.24;96195.59;5075614;28;20107;-49
2022/05/20 00:46:24;;;;;;;5.85;3.05;;;19.10;62.10;;;15.68;76.65;96188.91;5088847;28;20067;-49
2022/05/20 00:49:10;;;;;;;4.28;2.97;;;19.10;61.90;;;15.73;76.77;96183.50;5043061;28;20032;-49
2022/05/20 00:51:50;;;;;;;4.78;2.75;;;19.20;62.10;;;15.77;76.93;96181.06;5072276;28;20035;-51
2022/05/20 00:54:38;;;;;;;4.03;2.70;;;19.20;62.10;;;15.78;77.46;96177.25;5075551;28;20031;-50
2022/05/20 00:57:27;;;;;;;5.05;2.92;;;19.20;62.30;;;15.80;77.21;96182.38;5063976;28;20376;-49
2022/05/20 01:00:22;;;;;;;3.75;2.85;;;19.20;62.20;;;15.70;76.95;96165.25;5075551;28;20066;-51
2022/05/20 01:02:59;;;;;;;3.92;2.90;;;19.20;62.10;;;15.73;76.64;96170.06;5078583;28;20024;-49
2022/05/20 01:05:37;;;;;;;3.83;2.70;;;19.20;62.00;;;15.75;77.01;96168.97;5076114;28;20490;-49
2022/05/20 01:08:05;;;;;;;5.05;2.80;;;19.10;62.20;;;15.73;76.86;96174.63;5092948;28;20090;-49
2022/05/20 01:10:35;;;;;;;4.43;2.60;;;19.10;62.10;;;15.69;77.03;96171.69;5075240;28;20028;-48
2022/05/20 01:13:04;;;;;;;5.53;2.92;;;19.10;62.30;;;15.67;77.28;96170.41;5074867;28;20020;-49
2022/05/20 01:15:30;;;;;;;5.22;2.70;;;19.10;62.30;;;15.62;77.84;96171.19;5092868;28;20031;-48
2022/05/20 01:17:57;;;;;;;5.68;2.67;;;19.10;62.30;;;15.57;77.57;96159.69;5058034;28;20071;-51
2022/05/20 01:20:35;;;;;;;4.75;2.92;;;19.00;62.40;;;15.56;77.96;96163.47;5074875;28;20470;-49
2022/05/20 01:23:13;;;;;;;4.80;2.65;;;19.10;62.80;;;15.55;77.54;96165.38;5080742;28;20512;-50
2022/05/20 01:25:47;;;;;;;4.90;2.90;;;19.00;62.70;;;15.49;77.86;96158.44;5074506;28;20051;-50
2022/05/20 01:28:16;;;;;;;5.60;2.80;;;19.00;62.80;;;15.51;77.97;96167.00;5092795;28;20032;-52
2022/05/20 01:31:09;;;;;;;4.47;2.55;;;19.00;62.70;;;15.51;78.09;96164.31;5092361;28;20028;-50
2022/05/20 01:33:51;;;;;;;3.60;2.80;;;19.00;63.00;;;15.50;77.73;96168.88;5076535;28;20050;-50
2022/05/20 01:36:25;;;;;;;6.88;2.72;;;19.00;62.80;;;15.46;78.13;96162.47;5075666;28;20052;-48
2022/05/20 01:38:54;;;;;;;5.95;2.78;;;18.90;63.00;;;15.39;78.20;96159.31;5110938;28;20508;-48
2022/05/20 01:41:46;;;;;;;4.63;3.13;;;18.90;62.90;;;15.33;78.07;96165.03;5094563;28;20019;-48
2022/05/20 01:44:18;;;;;;;4.82;3.08;;;18.80;63.10;;;15.24;78.69;96157.56;5094709;28;20023;-49
2022/05/20 01:47:04;;;;;;;4.03;2.80;;;18.80;63.00;;;15.21;78.77;96154.63;5086461;28;20032;-51
2022/05/20 01:50:05;;;;;;;4.57;3.00;;;18.70;63.20;;;15.12;78.85;96162.47;5080587;28;20270;-48
2022/05/20 01:52:57;;;;;;;4.32;2.95;;;18.70;63.40;;;15.03;79.21;96159.56;5040235;28;20131;-50
2022/05/20 01:56:09;;;;;;;5.20;2.90;;;18.60;63.40;;;14.97;79.39;96155.31;5076844;28;20028;-50
2022/05/20 01:59:28;;;;;;;5.68;2.83;;;18.50;63.50;;;14.89;79.90;96147.06;5049765;28;20037;-48
2022/05/20 02:02:24;;;;;;;6.63;3.00;;;18.50;63.70;;;14.81;79.79;96141.19;5092316;28;20036;-49
2022/05/20 02:04:57;;;;;;;9.30;3.20;;;18.40;63.90;;;14.82;79.77;96142.00;5049241;28;20033;-49
2022/05/20 02:07:30;;;;;;;;;;;18.40;63.90;;;14.77;79.70;96142.84;5075333;28;20098;-48
2022/05/20 02:10:36;;;;;;;4.90;2.92;;;18.20;63.30;;;14.73;80.01;96146.38;5074728;28;19931;-49
2022/05/20 02:13:07;;;;;;;4.22;3.20;;;18.30;63.70;;;14.68;80.11;96136.47;5077431;28;20487;-48
2022/05/20 02:15:44;;;;;;;8.35;3.28;;;18.20;63.80;;;14.68;79.72;96141.81;5074804;28;20038;-51
2022/05/20 02:18:20;;;;;;;5.82;2.83;;;18.20;64.10;;;14.64;80.20;96137.31;5074901;28;20031;-51
2022/05/20 02:20:53;;;;;;;3.10;2.78;;;18.10;64.30;;;14.62;80.19;96140.25;5075053;28;20028;-52
2022/05/20 02:23:31;;;;;;;4.40;2.60;;;18.10;64.40;;;14.60;80.16;96128.19;5074481;28;20024;-53
2022/05/20 02:26:15;;;;;;;3.92;3.00;;;18.10;64.50;;;14.59;80.19;96138.13;5074931;28;20042;-49
2022/05/20 02:28:50;;;;;;;3.40;2.58;;;18.10;64.70;;;14.52;80.07;96134.94;5074513;28;20028;-48
2022/05/20 02:31:44;;;;;;;6.72;2.90;;;18.00;64.70;;;14.51;79.95;96130.66;5091934;28;20040;-48
2022/05/20 02:34:13;;;;;;;6.47;2.80;;;18.00;64.90;;;14.48;79.98;96125.81;5075963;28;20055;-48
2022/05/20 02:36:42;;;;;;;5.28;2.90;;;18.00;64.60;;;14.47;79.92;96129.56;5092506;28;20158;-55
2022/05/20 02:39:16;;;;;;;5.68;3.00;;;18.00;64.70;;;14.44;79.84;96136.28;5073704;28;20028;-54
2022/05/20 02:41:47;;;;;;;3.47;2.70;;;17.90;64.70;;;14.39;80.29;96132.84;5090593;28;20020;-53
2022/05/20 02:44:15;;;;;;;5.53;3.08;;;17.90;65.00;;;14.40;79.89;96140.59;5095464;28;20039;-50
2022/05/20 02:46:44;;;;;;;3.03;2.35;;;17.90;64.80;;;14.31;80.32;96137.66;5077720;28;20024;-53
2022/05/20 02:49:28;;;;;;;4.07;3.13;;;17.80;64.90;;;14.29;80.17;96133.66;5061172;28;20035;-54
2022/05/20 02:52:07;;;;;;;3.17;2.80;;;17.80;65.20;;;14.28;80.37;96134.75;5095686;28;20032;-51
2022/05/20 02:54:36;;;;;;;3.85;3.10;;;17.80;65.20;;;14.18;80.75;96130.22;5060751;28;20031;-52
2022/05/20 02:57:05;;;;;;;3.83;2.90;;;17.70;65.10;;;14.19;80.51;96136.38;5095434;28;20032;-54
2022/05/20 03:05:15;;;;;;;4.50;3.15;;;17.70;65.30;;;14.12;81.15;96128.63;5095339;28;20552;-54
2022/05/20 03:07:41;;;;;;;3.88;2.90;;;17.70;65.50;;;14.11;81.01;96137.75;5060724;28;20028;-55
2022/05/20 03:10:08;;;;;;;5.50;2.67;;;17.60;65.60;;;14.10;80.96;96133.47;5077071;28;20093;-53
2022/05/20 03:12:37;;;;;;;4.75;3.20;;;17.60;65.70;;;14.05;80.76;96123.56;5095270;28;20032;-55
2022/05/20 03:15:13;;;;;;;5.47;3.00;;;17.60;65.80;;;14.06;80.73;96135.09;5076956;28;20024;-54
2022/05/20 03:17:39;;;;;;;5.07;2.88;;;17.60;65.80;;;13.92;81.08;96124.16;5095183;28;20034;-53
2022/05/20 03:20:08;;;;;;;5.00;2.83;;;17.50;65.70;;;13.90;81.31;96137.00;5095177;28;20062;-55
2022/05/20 03:22:36;;;;;;;3.38;3.08;;;17.50;65.80;;;13.80;81.68;96126.34;5076988;28;20032;-53
2022/05/20 03:25:04;;;;;;;6.35;3.47;;;17.40;65.90;;;13.84;81.48;96122.03;5094966;28;20024;-56
2022/05/20 03:27:31;;;;;;;5.57;3.50;;;17.40;65.90;;;13.75;81.96;96118.31;5095033;28;20039;-56
2022/05/20 03:29:57;;;;;;;3.15;2.85;;;17.40;66.20;;;13.79;81.68;96124.72;5076954;28;20035;-56
2022/05/20 03:32:23;;;;;;;3.80;3.00;;;17.30;66.10;;;13.75;81.97;96120.97;5095009;28;20594;-52
2022/05/20 03:34:49;;;;;;;9.60;3.42;;;17.30;66.10;;;13.73;81.89;96126.63;5094485;28;20063;-56
2022/05/20 03:37:19;;;;;;;5.25;2.92;;;17.30;66.30;;;13.70;81.84;96126.34;5094744;28;20502;-55
2022/05/20 03:39:45;;;;;;;4.13;3.00;;;17.30;66.50;;;13.76;81.89;96119.94;5094690;28;20028;-51
2022/05/20 03:42:14;;;;;;;6.47;2.97;;;17.30;66.50;;;13.73;81.79;96121.25;5076553;28;20027;-56
2022/05/20 03:44:48;;;;;;;5.55;2.95;;;17.30;66.70;;;13.69;81.56;96128.22;5094505;28;20085;-55
2022/05/20 03:47:17;;;;;;;4.55;2.90;;;17.30;66.70;;;13.67;81.76;96125.03;5076562;28;20081;-56
2022/05/20 03:49:49;;;;;;;5.15;3.17;;;17.20;66.70;;;13.70;81.57;96129.84;5043488;28;20048;-56
2022/05/20 03:52:18;;;;;;;5.75;3.00;;;17.20;66.60;;;13.67;81.57;96129.56;5076393;28;20024;-57
2022/05/20 03:54:53;;;;;;;5.15;2.95;;;17.20;66.60;;;13.67;81.84;96129.56;5093995;28;20028;-55
2022/05/20 03:57:21;;;;;;;4.32;2.78;;;17.20;66.70;;;13.66;81.64;96126.06;5094334;28;20028;-55
2022/05/20 04:00:06;;;;;;;4.88;3.17;;;17.20;66.60;;;13.60;81.50;96116.44;5076305;28;20032;-56
2022/05/20 04:02:48;;;;;;;5.22;2.80;;;17.20;66.70;;;13.61;81.67;96120.75;5094302;28;20031;-56
2022/05/20 04:05:19;;;;;;;3.92;2.95;;;17.20;67.50;;;13.60;81.90;96125.31;5094030;28;20035;-55
2022/05/20 04:07:44;;;;;;;3.42;2.80;;;17.20;66.60;;;13.65;81.47;96119.91;5076251;28;20036;-56
2022/05/20 04:10:16;;;;;;;6.82;2.95;;;17.20;66.60;;;13.69;81.40;96124.72;5094174;28;20510;-57
2022/05/20 04:12:45;;;;;;;3.95;2.90;;;17.30;66.80;;;13.71;81.60;96117.25;5076260;28;20035;-54
2022/05/20 04:15:14;;;;;;;4.90;2.80;;;17.30;66.70;;;13.70;81.14;96107.63;5094116;28;20114;-55
2022/05/20 04:17:40;;;;;;;6.20;3.20;;;17.30;66.60;;;13.76;81.01;96122.59;5075973;28;20028;-55
2022/05/20 04:20:10;;;;;;;3.78;2.58;;;17.30;66.50;;;13.74;80.97;96111.34;5075758;28;20035;-56
2022/05/20 04:22:38;;;;;;;4.78;2.83;;;17.30;66.50;;;13.85;80.97;96129.81;5075868;28;20360;-57
2022/05/20 04:25:05;;;;;;;5.57;2.50;;;17.40;66.50;;;13.91;80.93;96138.59;5059114;28;20024;-56
2022/05/20 04:27:40;;;;;;;6.90;3.03;;;17.40;66.40;;;13.97;80.98;96134.84;5055781;28;20032;-56
2022/05/20 04:30:08;;;;;;;3.75;2.95;;;17.50;66.50;;;14.00;81.25;96130.81;5063168;28;20028;-54
2022/05/20 04:32:37;;;;;;;4.65;2.95;;;17.50;66.30;;;14.02;80.97;96129.47;5058970;28;20036;-53
2022/05/20 04:35:12;;;;;;;4.30;2.88;;;17.60;66.40;;;14.11;80.71;96119.81;5093425;28;20083;-52
2022/05/20 04:37:50;;;;;;;3.67;2.65;;;17.70;66.50;;;14.39;80.05;96132.84;5075544;28;20028;-55
2022/05/20 04:40:18;;;;;;;5.10;2.80;;;17.80;66.30;;;14.61;78.65;96129.81;5075594;28;20020;-53
2022/05/20 04:48:15;;;;;;;4.15;3.22;;;18.30;65.60;;;15.36;76.46;96135.72;5078200;28;20043;-56
2022/05/20 04:51:00;;;;;;;4.03;3.00;;;18.50;65.40;;;15.62;76.46;96140.88;5075326;28;20028;-55
2022/05/20 04:56:10;;;;;;;4.78;2.72;;;18.90;64.70;;;16.13;74.63;96143.06;5093421;28;20035;-57
2022/05/20 04:58:44;;;;;;;4.70;2.55;;;19.10;64.30;;;16.32;74.19;96140.41;5075187;28;20032;-57
2022/05/20 05:01:15;;;;;;;4.38;2.95;;;19.40;64.00;;;16.53;73.70;96139.09;5075109;28;20028;-55
2022/05/20 05:03:40;;;;;;;3.85;2.40;;;19.60;63.70;;;16.70;72.25;96138.59;5092940;28;20028;-56
2022/05/20 05:06:06;;;;;;;6.35;2.75;;;19.70;63.20;;;16.71;72.49;96136.72;5074465;28;20074;-56
2022/05/20 05:08:44;;;;;;;3.58;2.70;;;19.90;63.00;;;16.65;73.69;96139.47;5085918;28;20051;-56
2022/05/20 05:11:09;;;;;;;4.28;2.50;;;20.00;62.90;;;16.60;73.69;96149.47;5095773;28;20027;-56
2022/05/20 05:13:41;;;;;;;6.38;2.88;;;20.00;62.60;;;16.47;74.06;96142.94;5113337;28;20038;-55
2022/05/20 05:16:10;;;;;;;5.30;2.70;;;20.00;62.50;;;16.39;73.44;96146.28;5095252;28;20552;-57
2022/05/20 05:18:37;;;;;;;4.90;3.10;;;20.10;62.30;;;16.32;73.93;96156.56;5113247;28;20460;-56
2022/05/20 05:21:03;;;;;;;3.65;2.33;;;20.00;62.00;;;16.28;74.60;96150.16;5113495;28;20144;-55
2022/05/20 05:23:29;;;;;;;2.90;2.60;;;20.00;62.10;;;16.29;74.96;96152.53;5078224;28;20019;-57
2022/05/20 05:25:55;;;;;;;3.28;2.58;;;20.00;62.10;;;16.22;74.79;96143.22;5113177;28;20049;-57
2022/05/20 05:28:22;;;;;;;5.43;2.45;;;20.10;62.10;;;16.19;74.64;96148.09;5075383;28;20403;-52
2022/05/20 05:30:50;;;;;;;3.53;2.67;;;20.00;62.00;;;16.22;75.30;96148.63;5083432;28;20030;-51
2022/05/20 05:33:18;;;;;;;5.53;2.72;;;20.10;62.00;;;16.55;75.08;96149.56;5073136;28;20027;-52
2022/05/20 05:35:44;;;;;;;4.97;2.95;;;20.30;61.80;;;17.01;73.76;96157.81;5091001;28;20047;-54
2022/05/20 05:38:13;;;;;;;4.72;2.60;;;20.60;62.40;;;17.44;69.93;96146.16;5073020;28;20024;-54
2022/05/20 05:40:40;;;;;;;6.75;2.45;;;20.80;60.90;;;17.94;69.85;96151.78;5073020;28;20020;-56
2022/05/20 05:43:06;;;;;;;3.15;2.40;;;21.20;60.60;;;18.34;67.91;96161.00;5066214;28;20020;-56
2022/05/20 05:45:41;;;;;;;5.93;2.63;;;21.60;60.00;;;18.78;65.76;96154.19;5070810;28;20020;-57
2022/05/20 05:48:11;;;;;;;4.03;2.28;;;21.90;59.40;;;19.23;64.97;96154.25;5073353;28;20488;-54
2022/05/20 05:50:47;;;;;;;6.03;2.40;;;22.30;59.00;;;19.64;62.10;96151.41;5084949;28;20024;-55
2022/05/20 05:53:20;;;;;;;4.80;2.58;;;22.70;58.20;;;19.99;59.99;96153.50;5053723;28;20024;-56
2022/05/20 05:55:54;;;;;;;3.42;2.38;;;23.10;57.60;;;20.35;60.68;96156.06;5088706;28;20528;-55
2022/05/20 05:58:19;;;;;;;4.93;2.30;;;23.50;57.00;;;20.70;58.01;96150.75;5070960;28;20414;-56
2022/05/20 06:00:45;;;;;;;3.25;2.38;;;23.90;56.10;;;21.06;57.61;96161.34;5060396;28;20029;-55
2022/05/20 06:03:14;;;;;;;4.47;2.28;;;24.20;55.30;;;21.34;56.18;96148.28;5050241;28;20024;-57
2022/05/20 06:05:45;;;;;;;6.82;2.83;;;24.60;54.50;;;21.69;54.24;96161.81;5058941;28;20024;-58
2022/05/20 06:08:11;;;;;;;5.90;3.00;;;25.10;53.30;;;22.04;53.51;96161.75;5072710;28;20164;-56
2022/05/20 06:10:46;;;;;;;3.67;2.70;;;25.40;52.60;;;22.32;52.44;96160.22;5079045;28;20028;-57
2022/05/20 06:13:12;;;;;;;4.47;2.53;;;25.80;51.60;;;22.56;50.99;96164.25;5074014;28;20058;-55
2022/05/20 06:15:44;;;;;;;3.97;2.47;;;26.10;51.00;;;22.71;50.99;96160.19;5073356;28;20067;-54
2022/05/20 06:18:09;;;;;;;3.87;2.63;;;26.40;50.00;;;22.90;50.41;96163.25;5070276;28;20046;-55
2022/05/20 06:20:39;;;;;;;3.13;2.38;;;26.60;49.40;;;23.05;49.47;96157.28;5094970;28;20406;-52
2022/05/20 06:23:05;;;;;;;4.43;2.35;;;26.90;48.50;;;23.32;49.18;96160.59;5074836;28;20030;-53
2022/05/20 06:25:33;;;;;;;3.38;2.55;;;27.20;47.90;;;23.44;47.92;96173.44;5105755;28;20470;-58
2022/05/20 06:28:11;;;;;;;4.47;2.45;;;27.30;47.10;;;23.42;47.97;96168.34;5088380;28;20111;-57
2022/05/20 06:30:38;;;;;;;4.55;2.60;;;27.60;46.10;;;23.55;47.76;96159.13;5078777;28;20470;-57
2022/05/20 06:33:05;;;;;;;4.53;2.78;;;27.70;45.70;;;23.79;47.77;96171.25;5077743;28;20040;-58
2022/05/20 06:41:07;;;;;;;5.82;2.55;;;28.30;43.90;;;24.34;47.07;96153.66;5096209;28;20513;-56
2022/05/20 06:43:36;;;;;;;3.45;2.22;;;28.50;44.00;;;24.62;46.15;96155.75;5077443;28;20393;-57
2022/05/20 06:46:04;;;;;;;5.28;2.80;;;28.70;43.50;;;24.83;45.51;96152.91;5095613;28;20364;-57
2022/05/20 06:48:47;;;;;;;2.97;2.63;;;29.00;43.10;;;24.96;44.90;96159.13;5057757;28;20036;-56
2022/05/20 06:51:32;;;;;;;7.07;3.03;;;29.30;42.00;;;25.25;44.56;96147.16;5083217;28;20043;-56
2022/05/20 06:54:00;;;;;;;4.78;2.42;;;29.50;41.90;;;25.52;43.65;96153.78;5060908;28;20070;-58
2022/05/20 06:56:28;;;;;;;9.98;2.47;;;29.80;41.60;;;25.75;43.29;96156.72;5095611;28;20032;-58
2022/05/20 06:58:56;;;;;;;4.28;2.60;;;30.20;41.20;;;25.99;43.30;96153.13;5077680;28;20378;-58
2022/05/20 07:01:29;;;;;;;4.82;2.80;;;30.50;40.80;;;26.24;42.48;96164.69;5077695;28;20032;-58
2022/05/20 07:04:00;;;;;;;8.25;3.00;;;30.80;40.20;;;26.39;42.15;96161.16;5095663;28;20024;-57
2022/05/20 07:06:27;;;;;;;4.68;2.90;;;31.10;39.40;;;26.49;41.45;96144.28;5077484;28;20090;-57
2022/05/20 07:08:56;;;;;;;4.57;2.50;;;31.30;39.10;;;26.58;40.91;96157.75;5095508;28;20078;-57
2022/05/20 07:11:26;;;;;;;3.38;2.58;;;31.60;38.20;;;26.55;40.84;96157.66;5095475;28;20115;-56
2022/05/20 07:14:10;;;;;;;4.22;2.72;;;31.70;37.30;;;26.62;40.86;96152.38;5077376;28;20031;-58
2022/05/20 07:16:41;;;;;;;5.82;2.60;;;31.90;37.00;;;26.78;41.48;96158.59;5095521;28;20461;-58
2022/05/20 07:19:10;;;;;;;4.37;2.73;;;32.00;36.80;;;27.10;40.69;96156.56;5077134;28;20178;-58
2022/05/20 07:21:36;;;;;;;3.67;3.00;;;32.20;36.80;;;27.34;40.08;96152.03;5095349;28;20027;-58
2022/05/20 07:24:08;;;;;;;4.90;2.60;;;32.50;36.50;;;27.64;39.83;96155.78;5077167;28;20028;-58
2022/05/20 07:26:37;;;;;;;6.35;3.35;;;32.80;36.20;;;27.83;39.54;96152.25;5095202;28;20032;-58
2022/05/20 07:29:12;;;;;;;4.85;2.90;;;33.00;36.20;;;27.96;39.35;96154.84;5094798;28;20035;-57
2022/05/20 07:31:38;;;;;;;4.65;3.00;;;33.30;35.20;;;28.12;39.58;96152.78;5095474;28;20043;-57
2022/05/20 07:34:09;;;;;;;4.85;3.20;;;33.50;35.10;;;28.20;38.83;96153.69;5095137;28;20390;-57
2022/05/20 07:36:35;;;;;;;4.20;3.40;;;33.60;34.20;;;28.48;37.78;96150.66;5095239;28;20040;-57
2022/05/20 07:39:04;;;;;;;4.85;2.95;;;33.90;34.10;;;28.68;37.08;96146.69;5094933;28;20032;-56
2022/05/20 07:41:39;;;;;;;3.60;2.60;;;34.10;33.70;;;28.81;38.10;96150.00;5077635;28;20247;-56
2022/05/20 07:44:08;;;;;;;4.80;2.90;;;34.30;33.30;;;29.10;37.82;96153.97;5076687;28;20055;-56
2022/05/20 07:46:34;;;;;;;5.22;3.42;;;34.50;33.30;;;29.14;35.78;96151.28;5076515;28;20106;-57
2022/05/20 07:49:02;;;;;;;7.97;3.10;;;34.80;32.70;;;29.31;36.61;96152.69;5076664;28;20110;-58
2022/05/20 07:51:31;;;;;;;3.50;2.60;;;35.10;32.20;;;29.53;35.81;96140.81;5076790;28;20073;-58
2022/05/20 07:54:23;;;;;;;3.88;3.20;;;35.30;31.80;;;29.70;34.37;96137.50;5063106;28;20111;-58
2022/05/20 07:56:57;;;;;;;4.80;2.97;;;35.50;31.00;;;29.87;36.39;96144.38;5076721;28;20111;-57
2022/05/20 07:59:34;;;;;;;6.88;3.03;;;35.70;31.00;;;30.10;34.91;96148.91;5061455;28;20028;-58
2022/05/20 08:02:01;;;;;;;3.90;2.92;;;35.90;30.40;;;30.23;33.55;96149.44;5076947;28;20024;-57
2022/05/20 08:04:52;;;;;;;6.88;3.22;;;36.00;29.90;;;30.47;34.49;96142.59;5076613;28;20097;-58
2022/05/20 08:07:26;;;;;;;4.93;3.10;;;36.10;29.90;;;30.74;34.45;96143.19;5071196;28;20046;-56
2022/05/20 08:10:11;;;;;;;4.30;3.15;;;36.30;30.00;;;30.76;32.74;96116.88;5086788;28;20023;-57
2022/05/20 08:12:40;;;;;;;7.20;3.85;;;36.50;29.50;;;30.88;33.32;96121.31;5097469;28;20423;-58
2022/05/20 08:15:07;;;;;;;6.90;3.53;;;36.70;29.30;;;31.08;33.67;96125.34;5095950;28;20030;-57
2022/05/20 08:17:48;;;;;;;9.10;3.97;;;37.00;29.30;;;31.07;32.73;96121.03;5114428;28;20483;-58
2022/05/20 08:20:27;;;;;;;7.45;3.92;;;37.20;28.90;;;30.93;32.40;96123.69;5079353;28;20038;-57
2022/05/20 08:23:00;;;;;;;5.65;3.70;;;37.30;28.40;;;31.05;33.33;96120.63;5097198;28;20019;-58
2022/05/20 08:25:26;;;;;;;4.25;3.85;;;37.40;28.50;;;31.22;33.06;96116.41;5095865;28;20024;-56
2022/05/20 08:27:55;;;;;;;8.85;3.33;;;37.50;28.40;;;31.61;33.50;96112.25;5114561;28;20071;-56
2022/05/20 08:30:25;;;;;;;5.95;3.95;;;37.70;28.40;;;31.86;33.16;96115.84;5080129;28;20076;-58
2022/05/20 08:32:54;;;;;;;5.25;3.58;;;37.90;28.40;;;32.12;32.51;96122.22;5096250;28;20106;-59
2022/05/20 08:35:26;;;;;;;10.35;3.83;;;38.10;28.20;;;32.31;31.18;96121.06;5078919;28;20051;-57
2022/05/20 08:38:00;;;;;;;6.10;3.90;;;38.30;27.80;;;32.40;31.31;96110.44;5096718;28;20077;-52
2022/05/20 08:40:37;;;;;;;8.65;4.22;;;38.50;27.50;;;32.61;32.38;96115.97;5112999;28;20102;-51
2022/05/20 08:43:09;;;;;;;6.00;3.80;;;38.60;27.50;;;32.97;31.75;96112.34;5097108;28;20374;-52
2022/05/20 08:45:35;;;;;;;7.47;4.32;;;38.80;27.60;;;32.90;31.97;96110.41;5088876;28;20027;-52
2022/05/20 08:48:07;;;;;;;6.22;5.05;;;39.00;27.40;;;33.06;31.09;96110.00;5081668;28;20031;-53
2022/05/20 08:50:44;;;;;;;7.60;4.18;;;39.10;27.20;;;33.03;30.84;96110.78;5075507;28;20371;-56
2022/05/20 08:53:25;;;;;;;10.50;4.07;;;39.20;27.40;;;32.77;31.36;96098.22;5093567;28;20074;-53
2022/05/20 08:55:51;;;;;;;7.75;3.85;;;39.40;26.70;;;32.96;32.67;96097.78;5076387;28;20024;-54
2022/05/20 08:58:26;;;;;;;7.47;4.50;;;39.50;27.00;;;33.19;31.49;96094.59;5075301;28;20109;-52
2022/05/20 09:00:52;;;;;;;8.13;4.55;;;39.70;26.70;;;33.39;31.16;96097.66;5082499;28;20090;-51
2022/05/20 09:03:37;;;;;;;13.35;4.97;;;39.90;26.60;;;33.36;30.50;96095.72;5068481;28;20029;-53
2022/05/20 09:06:11;;;;;;;9.80;4.70;;;40.10;26.30;;;33.32;30.49;96092.97;5113553;28;20028;-53
2022/05/20 09:08:37;;;;;;;7.85;4.47;;;40.20;26.00;;;33.58;31.85;96093.66;5095319;28;20119;-53
2022/05/20 09:11:15;;;;;;;7.78;5.07;;;40.40;26.20;;;34.00;30.96;96083.53;5095359;28;20102;-52
2022/05/20 09:16:37;;;;;;;8.27;4.60;;;40.70;25.90;;;34.33;30.05;96093.19;5113369;28;20401;-52
2022/05/20 09:19:25;;;;;;;7.20;4.55;;;40.90;25.80;;;34.48;28.99;96088.34;5095110;28;20028;-51
2022/05/20 09:22:31;;;;;;;9.93;4.50;;;41.00;25.50;;;35.00;29.97;96086.25;5077893;28;20031;-53
2022/05/20 09:25:22;;;;;;;7.22;4.28;;;41.20;25.70;;;35.24;27.73;96075.34;5045615;28;20063;-50
2022/05/20 09:27:51;;;;;;;5.50;4.80;;;41.40;25.30;;;35.51;28.91;96074.59;5095531;28;20028;-52
2022/05/20 09:30:25;;;;;;;10.50;4.40;;;41.50;25.40;;;35.23;27.74;96069.03;5095440;28;20115;-51
2022/05/20 09:33:18;;;;;;;7.70;4.85;;;41.70;24.90;;;35.68;27.76;96073.63;5095494;28;20176;-51
2022/05/20 09:35:59;;;;;;;11.15;4.65;;;41.80;24.80;;;35.85;27.99;96069.81;5095480;28;20052;-53
2022/05/20 09:38:31;;;;;;;5.60;4.93;;;42.00;24.60;;;36.06;27.82;96067.94;5112878;28;20036;-51
2022/05/20 09:41:20;;;;;;;8.70;5.32;;;42.10;24.60;;;36.47;26.64;96064.88;5112967;28;20035;-52
2022/05/20 09:43:59;;;;;;;8.65;4.95;;;42.20;24.60;;;36.79;26.09;96058.00;5112974;28;20388;-55
2022/05/20 09:46:51;;;;;;;7.97;4.88;;;42.50;24.40;;;36.33;27.63;96034.66;5074278;28;20025;-51
2022/05/20 09:49:44;;;;;;;6.78;4.43;;;42.40;24.60;;;36.35;26.22;96051.63;5090968;28;20031;-51
2022/05/20 09:52:23;;;;;;;6.63;5.00;;;42.50;24.40;;;36.42;26.81;96045.16;5063003;28;20051;-56
2022/05/20 09:55:11;;;;;;;5.78;4.63;;;42.60;24.30;;;36.57;24.59;96041.78;5092527;28;20503;-50
2022/05/20 09:57:45;;;;;;;8.20;4.70;;;42.70;23.60;;;36.77;26.16;96052.13;5058466;28;20495;-56
2022/05/20 10:00:26;;;;;;;12.35;5.18;;;42.90;23.60;;;36.63;25.87;96055.13;5092504;28;20364;-51
2022/05/20 10:03:32;;;;;;;10.23;5.13;;;42.90;23.30;;;37.04;24.35;96052.81;5074860;28;20029;-56
2022/05/20 10:06:23;;;;;;;6.25;4.82;;;43.10;23.20;;;36.86;24.32;96046.78;5029710;28;20042;-58
2022/05/20 10:09:10;;;;;;;10.23;5.83;;;43.20;22.80;;;37.05;24.62;96043.25;5069203;28;20032;-58
2022/05/20 10:12:12;;;;;;;7.68;4.43;;;43.30;22.70;;;37.16;25.88;96036.72;5092282;28;20048;-58
2022/05/20 10:15:14;;;;;;;8.52;4.53;;;43.30;23.00;;;36.99;26.69;96033.09;5092699;28;20165;-59
2022/05/20 10:18:19;;;;;;;9.13;5.55;;;43.40;23.30;;;37.14;24.76;96031.59;5074150;28;20505;-55
2022/05/20 10:21:02;;;;;;;8.20;4.85;;;43.60;23.20;;;37.30;24.76;96030.09;5076578;28;20429;-59
2022/05/20 10:23:58;;;;;;;7.90;5.15;;;43.70;22.70;;;37.68;24.94;96022.13;5092325;28;20391;-59
2022/05/20 10:26:56;;;;;;;9.32;5.25;;;44.00;22.60;;;37.48;24.31;96028.53;5075204;28;20032;-59
2022/05/20 10:32:59;;;;;;;7.68;4.90;;;44.10;23.10;;;37.09;25.12;96017.44;5092098;28;20118;-58
2022/05/20 10:36:04;;;;;;;6.10;5.03;;;44.00;22.10;;;37.15;25.03;96013.72;5075217;28;20047;-59
2022/05/20 10:39:07;;;;;;;6.68;5.10;;;43.70;22.10;;;36.78;25.62;96007.28;5092027;28;20070;-55
2022/05/20 10:42:20;;;;;;;6.75;4.68;;;43.10;22.50;;;36.20;28.75;96005.94;5091932;28;20103;-57
2022/05/20 10:48:44;;;;;;;8.27;5.85;;;41.80;23.70;;;36.06;26.54;95991.13;5092076;28;20081;-58
2022/05/20 10:51:37;;;;;;;11.30;5.63;;;42.10;24.10;;;35.96;26.67;95983.75;5073968;28;20482;-59
2022/05/20 10:54:33;;;;;;;10.70;5.38;;;42.40;23.40;;;36.36;28.09;95970.03;5091881;28;20039;-58
2022/05/20 10:57:42;;;;;;;10.38;5.70;;;42.70;23.60;;;36.55;26.07;95957.41;5073831;28;20055;-60
2022/05/20 11:00:18;;;;;;;7.82;5.40;;;43.40;22.90;;;36.66;25.23;95952.41;5091733;28;20453;-59
2022/05/20 11:03:02;;;;;;;7.38;5.63;;;43.60;22.50;;;36.80;24.41;95948.59;5075029;28;20032;-58
2022/05/20 11:06:31;;;;;;;10.48;5.60;;;44.00;22.10;;;37.30;25.32;95946.78;5095651;28;20047;-60
2022/05/20 11:09:22;;;;;;;8.25;5.65;;;44.50;22.10;;;37.71;25.06;95944.22;5095580;28;20024;-60
2022/05/20 11:12:06;;;;;;;7.85;5.50;;;45.30;22.00;;;37.87;26.20;95946.22;5095514;28;20464;-59
2022/05/20 11:15:06;;;;;;;8.73;5.38;;;45.90;21.80;;;38.17;23.75;95930.41;5060534;28;20097;-60
2022/05/20 11:18:36;;;;;;;9.40;5.38;;;46.20;21.10;;;37.66;23.44;95924.50;5061843;28;20055;-58
2022/05/20 11:21:24;;;;;;;7.30;4.97;;;45.90;21.00;;;37.65;23.39;95917.41;5095475;28;20028;-57
2022/05/20 11:24:33;;;;;;;7.35;5.65;;;45.20;21.00;;;37.41;22.41;95925.06;5095355;28;20063;-57
2022/05/20 11:27:51;;;;;;;9.57;4.50;;;44.70;20.70;;;37.15;23.14;95911.00;5095159;28;20023;-57